createdAt,value
2019-02-06T00:01:31.675Z,4.07
2019-02-06T00:04:00.223Z,3.80
2019-02-06T00:06:29.194Z,4.60
2019-02-06T00:08:58.543Z,3.43
2019-02-06T00:11:27.299Z,3.60
2019-02-06T00:13:55.928Z,3.23
2019-02-06T00:16:24.863Z,3.23
2019-02-06T00:18:53.857Z,3.80
2019-02-06T00:21:22.847Z,3.50
2019-02-06T00:23:51.569Z,4.33
2019-02-06T00:26:20.575Z,3.13
2019-02-06T00:28:49.255Z,3.20
2019-02-06T00:31:17.555Z,3.00
2019-02-06T00:33:46.383Z,3.43
2019-02-06T00:36:15.028Z,3.00
2019-02-06T00:38:43.751Z,3.40
2019-02-06T00:41:12.687Z,3.23
2019-02-06T00:43:41.418Z,3.77
2019-02-06T00:46:10.318Z,3.40
2019-02-06T00:48:39.051Z,3.10
2019-02-06T00:51:08.045Z,3.40
2019-02-06T00:53:36.615Z,3.57
2019-02-06T00:56:05.679Z,3.30
2019-02-06T00:58:34.030Z,4.10
2019-02-06T01:01:02.783Z,3.40
2019-02-06T01:03:31.092Z,3.33
2019-02-06T01:06:00.031Z,3.20
2019-02-06T01:08:28.951Z,3.47
2019-02-06T01:10:57.532Z,3.57
2019-02-06T01:13:26.202Z,3.63
2019-02-06T01:15:55.166Z,3.00
2019-02-06T01:18:23.579Z,3.50
2019-02-06T01:20:52.251Z,3.43
2019-02-06T01:23:20.575Z,3.03
2019-02-06T01:25:49.647Z,3.20
2019-02-06T01:28:18.596Z,3.17
2019-02-06T01:30:55.014Z,3.70
2019-02-06T01:33:23.998Z,3.57
2019-02-06T01:35:52.623Z,3.70
2019-02-06T01:38:20.989Z,3.70
2019-02-06T01:40:49.752Z,3.27
2019-02-06T01:43:18.795Z,3.67
2019-02-06T01:45:47.389Z,3.77
2019-02-06T01:48:16.376Z,4.03
2019-02-06T01:50:44.747Z,3.47
2019-02-06T01:53:13.643Z,4.20
2019-02-06T01:55:42.501Z,4.27
2019-02-06T01:58:11.470Z,4.00
2019-02-06T02:00:40.555Z,4.43
2019-02-06T02:03:09.456Z,4.40
2019-02-06T02:05:38.155Z,4.10
2019-02-06T02:08:07.090Z,4.20
2019-02-06T02:10:37.404Z,3.60
2019-02-06T02:13:06.251Z,4.50
2019-02-06T02:15:35.650Z,4.20
2019-02-06T02:18:04.909Z,5.70
2019-02-06T02:20:34.256Z,4.70
2019-02-06T02:23:03.109Z,4.30
2019-02-06T02:25:31.930Z,3.90
2019-02-06T02:28:00.606Z,4.37
2019-02-06T02:30:37.906Z,4.60
2019-02-06T02:33:06.898Z,4.23
2019-02-06T02:35:35.747Z,4.10
2019-02-06T02:38:04.488Z,4.30
2019-02-06T02:40:32.875Z,4.07
2019-02-06T02:43:01.656Z,4.13
2019-02-06T02:45:30.940Z,4.27
2019-02-06T02:47:59.684Z,3.67
2019-02-06T02:50:28.577Z,4.30
2019-02-06T02:52:57.283Z,3.97
2019-02-06T02:55:25.995Z,3.90
2019-02-06T02:57:54.938Z,3.90
2019-02-06T03:00:30.209Z,4.30
2019-02-06T03:03:03.642Z,3.80
2019-02-06T03:05:34.276Z,4.03
2019-02-06T03:08:02.875Z,4.30
2019-02-06T03:10:31.232Z,4.05
2019-02-06T03:12:59.928Z,3.83
2019-02-06T03:15:28.395Z,3.97
2019-02-06T03:17:57.375Z,3.90
2019-02-06T03:20:26.112Z,3.63
2019-02-06T03:22:54.743Z,3.33
2019-02-06T03:25:23.440Z,3.67
2019-02-06T03:27:52.097Z,3.93
2019-02-06T03:30:21.289Z,3.83
2019-02-06T03:32:50.399Z,3.30
2019-02-06T03:35:19.176Z,3.87
2019-02-06T03:37:47.839Z,3.80
2019-02-06T03:40:17.122Z,3.80
2019-02-06T03:42:45.622Z,4.17
2019-02-06T03:45:15.326Z,3.80
2019-02-06T03:47:44.367Z,3.80
2019-02-06T03:50:14.145Z,3.53
2019-02-06T03:52:42.575Z,4.13
2019-02-06T03:55:12.432Z,3.50
2019-02-06T03:57:41.214Z,4.03
2019-02-06T04:00:11.378Z,4.10
2019-02-06T04:02:39.750Z,4.70
2019-02-06T04:05:09.034Z,3.90
2019-02-06T04:07:37.935Z,4.25
2019-02-06T04:10:06.927Z,4.27
2019-02-06T04:12:36.436Z,3.80
2019-02-06T04:15:05.290Z,3.77
2019-02-06T04:17:34.436Z,3.97
2019-02-06T04:20:03.543Z,4.00
2019-02-06T04:22:31.938Z,4.03
2019-02-06T04:25:00.797Z,4.43
2019-02-06T04:27:29.460Z,4.60
2019-02-06T04:29:58.027Z,4.07
2019-02-06T04:32:26.502Z,4.93
2019-02-06T04:34:54.912Z,4.00
2019-02-06T04:37:23.918Z,4.47
2019-02-06T04:39:52.914Z,4.00
2019-02-06T04:42:21.761Z,4.37
2019-02-06T04:44:50.441Z,4.67
2019-02-06T04:47:19.082Z,4.20
2019-02-06T04:49:47.565Z,4.17
2019-02-06T04:52:16.344Z,4.63
2019-02-06T04:54:45.334Z,3.90
2019-02-06T04:57:14.662Z,4.50
2019-02-06T04:59:43.934Z,4.50
2019-02-06T05:02:12.926Z,4.10
2019-02-06T05:04:42.226Z,5.00
2019-02-06T05:07:18.855Z,3.93
2019-02-06T05:09:41.538Z,4.03
2019-02-06T05:12:10.223Z,4.20
2019-02-06T05:14:38.814Z,3.67
2019-02-06T05:17:07.523Z,4.43
2019-02-06T05:19:37.437Z,4.30
2019-02-06T05:22:05.977Z,4.07
2019-02-06T05:24:34.559Z,4.03
2019-02-06T05:27:03.263Z,4.53
2019-02-06T05:29:32.215Z,4.50
2019-02-06T05:32:00.808Z,4.90
2019-02-06T05:34:29.450Z,4.73
2019-02-06T05:36:57.997Z,4.10
2019-02-06T05:39:26.903Z,5.17
2019-02-06T05:41:55.587Z,5.13
2019-02-06T05:44:24.297Z,5.10
2019-02-06T05:46:52.959Z,4.60
2019-02-06T05:49:21.907Z,5.10
2019-02-06T05:51:50.424Z,4.47
2019-02-06T05:54:19.558Z,4.43
2019-02-06T05:56:48.898Z,4.87
2019-02-06T05:59:17.585Z,6.27
2019-02-06T06:01:46.304Z,6.83
2019-02-06T06:04:15.294Z,5.80
2019-02-06T06:06:43.664Z,5.23
2019-02-06T06:09:12.283Z,4.97
2019-02-06T06:11:40.663Z,5.57
2019-02-06T06:14:09.173Z,4.30
2019-02-06T06:16:37.896Z,5.00
2019-02-06T06:19:06.559Z,5.00
2019-02-06T06:21:35.125Z,4.63
2019-02-06T06:24:03.484Z,4.67
2019-02-06T06:26:31.883Z,5.27
2019-02-06T06:29:00.926Z,5.90
2019-02-06T06:31:29.522Z,5.37
2019-02-06T06:33:58.003Z,4.80
2019-02-06T06:36:26.770Z,6.43
2019-02-06T06:38:55.619Z,5.80
2019-02-06T06:41:23.907Z,5.37
2019-02-06T06:43:52.718Z,5.73
2019-02-06T06:46:21.363Z,5.70
2019-02-06T06:48:50.142Z,5.47
2019-02-06T06:51:19.895Z,5.27
2019-02-06T06:53:48.831Z,5.43
2019-02-06T06:56:17.358Z,5.50
2019-02-06T06:58:45.783Z,5.70
2019-02-06T07:01:14.230Z,5.20
2019-02-06T07:03:43.830Z,5.17
2019-02-06T07:06:12.440Z,5.70
2019-02-06T07:08:41.047Z,5.27
2019-02-06T07:11:10.125Z,6.40
2019-02-06T07:13:38.718Z,5.20
2019-02-06T07:16:07.799Z,5.40
2019-02-06T07:18:36.862Z,5.20
2019-02-06T07:21:05.789Z,4.13
2019-02-06T07:23:34.654Z,5.50
2019-02-06T07:26:02.977Z,5.27
2019-02-06T07:28:31.595Z,4.90
2019-02-06T07:31:00.477Z,4.50
2019-02-06T07:33:29.151Z,5.10
2019-02-06T07:35:57.578Z,5.60
2019-02-06T07:38:26.195Z,5.17
2019-02-06T07:40:55.270Z,5.70
2019-02-06T07:43:23.735Z,5.63
2019-02-06T07:45:52.499Z,4.17
2019-02-06T07:48:21.635Z,5.27
2019-02-06T07:50:50.795Z,5.13
2019-02-06T07:53:19.387Z,5.50
2019-02-06T07:55:47.994Z,6.73
2019-02-06T07:58:16.946Z,5.43
2019-02-06T08:00:45.450Z,6.20
2019-02-06T08:03:14.081Z,5.80
2019-02-06T08:05:42.954Z,5.37
2019-02-06T08:08:12.039Z,6.17
2019-02-06T08:10:40.529Z,5.67
2019-02-06T08:13:09.000Z,4.80
2019-02-06T08:15:39.023Z,5.00
2019-02-06T08:18:07.795Z,5.57
2019-02-06T08:20:36.873Z,6.03
2019-02-06T08:23:05.646Z,5.13
2019-02-06T08:25:34.072Z,5.43
2019-02-06T08:28:03.066Z,4.50
2019-02-06T08:30:32.981Z,5.60
2019-02-06T08:33:01.983Z,4.83
2019-02-06T08:35:31.274Z,4.57
2019-02-06T08:37:59.960Z,5.30
2019-02-06T08:40:28.631Z,4.97
2019-02-06T08:42:57.247Z,4.90
2019-02-06T08:45:25.923Z,5.03
2019-02-06T08:47:54.861Z,5.47
2019-02-06T08:50:24.717Z,5.30
2019-02-06T08:52:53.319Z,5.10
2019-02-06T08:55:22.514Z,5.07
2019-02-06T08:57:51.298Z,5.40
2019-02-06T09:00:23.755Z,5.23
2019-02-06T09:02:52.414Z,5.40
2019-02-06T09:05:21.302Z,5.50
2019-02-06T09:07:50.243Z,4.67
2019-02-06T09:10:20.559Z,4.80
2019-02-06T09:12:49.507Z,4.93
2019-02-06T09:15:18.086Z,4.60
2019-02-06T09:17:48.192Z,5.07
2019-02-06T09:20:17.794Z,5.47
2019-02-06T09:22:46.607Z,4.33
2019-02-06T09:25:16.070Z,4.60
2019-02-06T09:27:44.419Z,4.77
2019-02-06T09:30:14.518Z,4.63
2019-02-06T09:32:43.430Z,4.23
2019-02-06T09:35:13.646Z,5.17
2019-02-06T09:37:42.834Z,4.93
2019-02-06T09:40:12.019Z,4.80
2019-02-06T09:42:40.564Z,4.90
2019-02-06T09:45:09.591Z,5.57
2019-02-06T09:47:38.742Z,4.57
2019-02-06T09:50:08.898Z,4.70
2019-02-06T09:52:37.852Z,4.90
2019-02-06T09:55:06.886Z,4.70
2019-02-06T09:57:35.660Z,4.87
2019-02-06T10:00:05.087Z,4.50
2019-02-06T10:02:33.976Z,4.20
2019-02-06T10:05:04.155Z,4.90
2019-02-06T10:07:32.903Z,4.57
2019-02-06T10:10:01.922Z,4.67
2019-02-06T10:12:30.590Z,5.13
2019-02-06T10:14:59.219Z,4.47
2019-02-06T10:17:27.638Z,4.80
2019-02-06T10:19:56.851Z,4.30
2019-02-06T10:22:25.340Z,4.73
2019-02-06T10:24:54.026Z,4.50
2019-02-06T10:27:24.075Z,4.73
2019-02-06T10:29:53.251Z,4.40
2019-02-06T10:32:21.922Z,4.23
2019-02-06T10:34:50.598Z,4.73
2019-02-06T10:37:20.459Z,5.40
2019-02-06T10:39:49.222Z,5.57
2019-02-06T10:42:18.671Z,4.53
2019-02-06T10:44:48.394Z,4.33
2019-02-06T10:47:17.174Z,5.27
2019-02-06T10:49:45.969Z,4.03
2019-02-06T10:52:14.802Z,4.10
2019-02-06T10:54:43.471Z,4.80
2019-02-06T10:57:12.095Z,4.63
2019-02-06T10:59:41.124Z,4.80
2019-02-06T11:02:09.534Z,5.33
2019-02-06T11:04:38.319Z,4.40
2019-02-06T11:07:08.174Z,4.40
2019-02-06T11:09:46.027Z,4.27
2019-02-06T11:12:07.571Z,4.40
2019-02-06T11:14:36.356Z,3.73
2019-02-06T11:17:04.723Z,4.47
2019-02-06T11:19:33.572Z,4.03
2019-02-06T11:22:02.412Z,4.50
2019-02-06T11:24:31.255Z,4.10
2019-02-06T11:27:00.002Z,6.37
2019-02-06T11:29:28.550Z,3.60
2019-02-06T11:31:57.139Z,4.53
2019-02-06T11:34:25.924Z,4.97
2019-02-06T11:36:54.536Z,4.13
2019-02-06T11:39:24.014Z,4.40
2019-02-06T11:41:52.776Z,4.40
2019-02-06T11:44:21.504Z,4.10
2019-02-06T11:46:50.178Z,4.77
2019-02-06T11:49:23.177Z,4.13
2019-02-06T11:51:51.849Z,4.00
2019-02-06T11:54:20.552Z,4.60
2019-02-06T11:56:49.378Z,3.93
2019-02-06T11:59:17.930Z,4.90
2019-02-06T12:01:50.688Z,4.10
2019-02-06T12:04:20.222Z,4.50
2019-02-06T12:06:51.639Z,4.33
2019-02-06T12:09:20.626Z,4.53
2019-02-06T12:11:48.950Z,4.10
2019-02-06T12:14:17.634Z,4.20
2019-02-06T12:16:46.308Z,4.23
2019-02-06T12:19:14.703Z,4.03
2019-02-06T12:21:43.114Z,3.43
2019-02-06T12:24:11.534Z,4.13
2019-02-06T12:26:40.202Z,4.13
2019-02-06T12:29:08.533Z,3.80
2019-02-06T12:31:37.134Z,3.90
2019-02-06T12:34:05.932Z,4.50
2019-02-06T12:36:34.327Z,3.83
2019-02-06T12:39:06.259Z,4.27
2019-02-06T12:41:36.571Z,4.12
2019-02-06T12:44:05.280Z,3.87
2019-02-06T12:46:33.630Z,4.83
2019-02-06T12:49:02.550Z,3.93
2019-02-06T12:51:31.095Z,5.40
2019-02-06T12:53:59.838Z,3.47
2019-02-06T12:56:28.367Z,4.10
2019-02-06T12:58:56.771Z,4.03
2019-02-06T13:01:25.513Z,3.87
2019-02-06T13:03:54.267Z,3.10
2019-02-06T13:06:23.151Z,3.50
2019-02-06T13:08:51.967Z,4.50
2019-02-06T13:11:20.551Z,3.40
2019-02-06T13:13:49.254Z,3.80
2019-02-06T13:16:17.858Z,4.00
2019-02-06T13:18:46.475Z,3.77
2019-02-06T13:21:15.010Z,3.67
2019-02-06T13:23:44.012Z,4.03
2019-02-06T13:26:12.942Z,4.37
2019-02-06T13:28:41.452Z,4.17
2019-02-06T13:31:10.314Z,3.70
2019-02-06T13:33:39.218Z,4.57
2019-02-06T13:36:08.946Z,3.80
2019-02-06T13:38:37.642Z,4.57
2019-02-06T13:41:06.491Z,4.37
2019-02-06T13:43:34.895Z,4.92
2019-02-06T13:46:03.818Z,4.40
2019-02-06T13:48:33.784Z,4.10
2019-02-06T13:51:02.914Z,4.90
2019-02-06T13:53:33.398Z,4.72
2019-02-06T13:56:01.747Z,4.27
2019-02-06T13:58:30.127Z,4.67
2019-02-06T14:00:58.843Z,4.60
2019-02-06T14:03:27.123Z,4.03
2019-02-06T14:05:55.806Z,4.35
2019-02-06T14:08:24.282Z,4.62
2019-02-06T14:11:00.111Z,4.30
2019-02-06T14:13:23.544Z,4.15
2019-02-06T14:15:52.148Z,4.40
2019-02-06T14:18:20.536Z,3.98
2019-02-06T14:20:50.831Z,3.90
2019-02-06T14:23:21.212Z,4.23
2019-02-06T14:25:55.835Z,4.47
2019-02-06T14:28:49.918Z,4.08
2019-02-06T14:31:40.796Z,3.77
2019-02-06T14:34:11.887Z,3.97
2019-02-06T14:36:58.444Z,3.30
2019-02-06T14:39:49.782Z,4.13
2019-02-06T14:42:39.468Z,4.10
2019-02-06T14:45:18.503Z,3.90
2019-02-06T14:47:49.979Z,3.60
2019-02-06T14:50:21.236Z,3.80
2019-02-06T14:53:15.374Z,4.30
2019-02-06T14:55:52.867Z,3.60
2019-02-06T14:58:35.832Z,3.47
2019-02-06T15:01:32.867Z,3.00
2019-02-06T15:04:26.920Z,3.70
2019-02-06T15:07:13.935Z,3.57
2019-02-06T15:10:02.733Z,3.90
2019-02-06T15:12:59.774Z,3.73
2019-02-06T15:15:47.604Z,4.07
2019-02-06T15:18:38.687Z,4.30
2019-02-06T15:21:20.994Z,4.67
2019-02-06T15:23:54.202Z,4.00
2019-02-06T15:26:35.612Z,4.47
2019-02-06T15:29:23.252Z,3.60
2019-02-06T15:32:09.775Z,4.10
2019-02-06T15:34:51.437Z,4.20
2019-02-06T15:37:27.080Z,3.53
2019-02-06T15:40:24.444Z,3.60
2019-02-06T15:43:12.411Z,4.20
2019-02-06T15:46:09.532Z,3.53
2019-02-06T15:49:01.345Z,3.70
2019-02-06T15:52:01.178Z,3.50
2019-02-06T15:54:49.526Z,4.00
2019-02-06T15:57:43.581Z,4.00
2019-02-06T16:00:39.213Z,3.93
2019-02-06T16:03:14.125Z,3.87
2019-02-06T16:05:56.687Z,3.63
2019-02-06T16:08:33.610Z,4.03
2019-02-06T16:11:06.319Z,3.50
2019-02-06T16:13:48.487Z,4.30
2019-02-06T16:16:21.618Z,2.90
2019-02-06T16:19:08.528Z,4.30
2019-02-06T16:21:52.995Z,3.37
2019-02-06T16:24:41.127Z,3.03
2019-02-06T16:27:16.451Z,3.23
2019-02-06T16:30:04.155Z,3.50
2019-02-06T16:32:48.002Z,4.13
2019-02-06T16:35:20.266Z,4.20
2019-02-06T16:38:11.148Z,3.17
2019-02-06T16:41:11.398Z,3.53
2019-02-06T16:44:01.431Z,3.80
2019-02-06T16:46:51.313Z,4.00
2019-02-06T16:49:30.767Z,3.60
2019-02-06T16:52:09.023Z,4.30
2019-02-06T16:54:59.688Z,4.63
2019-02-06T16:57:53.640Z,4.50
2019-02-06T17:00:44.711Z,3.93
2019-02-06T17:03:30.027Z,3.70
2019-02-06T17:06:04.048Z,4.30
2019-02-06T17:08:55.143Z,3.90
2019-02-06T17:11:44.764Z,4.17
2019-02-06T17:14:21.162Z,4.20
2019-02-06T17:17:19.121Z,3.97
2019-02-06T17:20:05.463Z,3.77
2019-02-06T17:22:45.023Z,4.30
2019-02-06T17:25:36.834Z,4.20
2019-02-06T17:28:08.484Z,4.20
2019-02-06T17:30:55.252Z,3.97
2019-02-06T17:33:45.271Z,4.13
2019-02-06T17:36:26.522Z,4.77
2019-02-06T17:39:23.758Z,3.93
2019-02-06T17:41:53.615Z,4.37
2019-02-06T17:44:48.795Z,4.57
2019-02-06T17:47:39.644Z,4.40
2019-02-06T17:50:33.759Z,4.43
2019-02-06T17:53:17.424Z,4.20
2019-02-06T17:55:46.415Z,6.97
2019-02-06T17:58:15.031Z,4.33
2019-02-06T18:00:54.167Z,4.57
2019-02-06T18:03:22.915Z,4.80
2019-02-06T18:05:51.750Z,4.33
2019-02-06T18:08:20.693Z,5.03
2019-02-06T18:10:49.006Z,5.10
2019-02-06T18:13:17.519Z,5.00
2019-02-06T18:15:46.366Z,5.20
2019-02-06T18:18:16.983Z,5.33
2019-02-06T18:20:45.858Z,5.03
2019-02-06T18:23:14.387Z,5.90
2019-02-06T18:25:43.036Z,6.27
2019-02-06T18:28:11.986Z,6.27
2019-02-06T18:30:40.707Z,5.17
2019-02-06T18:33:09.070Z,5.07
2019-02-06T18:35:39.356Z,5.70
2019-02-06T18:38:10.680Z,5.80
2019-02-06T18:40:43.879Z,7.17
2019-02-06T18:43:12.951Z,7.00
2019-02-06T18:45:41.735Z,6.47
2019-02-06T18:48:10.791Z,6.80
2019-02-06T18:50:39.984Z,6.30
2019-02-06T18:53:09.326Z,6.10
2019-02-06T18:55:38.219Z,23.93
2019-02-06T18:58:07.319Z,7.77
2019-02-06T19:00:36.400Z,7.23
2019-02-06T19:03:06.666Z,7.47
2019-02-06T19:05:36.102Z,6.80
2019-02-06T19:08:06.970Z,6.10
2019-02-06T19:10:35.898Z,6.20
2019-02-06T19:13:04.964Z,8.10
2019-02-06T19:15:34.011Z,8.67
2019-02-06T19:18:04.449Z,8.90
2019-02-06T19:20:35.462Z,7.87
2019-02-06T19:23:03.546Z,7.53
2019-02-06T19:25:32.099Z,7.93
2019-02-06T19:28:00.813Z,8.27
2019-02-06T19:30:30.436Z,6.93
2019-02-06T19:32:59.019Z,6.87
2019-02-06T19:35:28.092Z,7.73
2019-02-06T19:37:56.863Z,8.23
2019-02-06T19:40:26.035Z,7.73
2019-02-06T19:43:00.515Z,8.97
2019-02-06T19:45:25.601Z,9.50
2019-02-06T19:47:55.531Z,9.40
2019-02-06T19:50:25.124Z,8.40
2019-02-06T19:52:54.803Z,9.83
2019-02-06T19:55:23.735Z,8.90
2019-02-06T19:57:53.187Z,8.03
2019-02-06T20:00:24.487Z,8.70
2019-02-06T20:02:53.195Z,7.37
2019-02-06T20:05:22.428Z,6.53
2019-02-06T20:07:51.007Z,6.87
2019-02-06T20:10:21.122Z,6.63
2019-02-06T20:12:53.119Z,6.60
2019-02-06T20:15:22.137Z,6.40
2019-02-06T20:17:51.198Z,6.87
2019-02-06T20:20:21.699Z,7.87
2019-02-06T20:22:51.740Z,7.50
2019-02-06T20:25:21.338Z,7.20
2019-02-06T20:27:51.932Z,8.27
2019-02-06T20:30:28.779Z,6.97
2019-02-06T20:32:57.549Z,6.50
2019-02-06T20:35:26.440Z,6.50
2019-02-06T20:37:56.168Z,6.63
2019-02-06T20:40:26.134Z,7.20
2019-02-06T20:42:57.897Z,7.40
2019-02-06T20:45:27.032Z,8.90
2019-02-06T20:47:55.928Z,9.17
2019-02-06T20:50:27.162Z,7.67
2019-02-06T20:52:56.975Z,7.47
2019-02-06T20:55:26.309Z,7.13
2019-02-06T20:57:55.277Z,7.33
2019-02-06T21:00:34.632Z,9.10
2019-02-06T21:03:06.759Z,11.10
2019-02-06T21:05:40.064Z,8.03
2019-02-06T21:08:09.467Z,8.23
2019-02-06T21:10:38.779Z,9.40
2019-02-06T21:13:08.306Z,8.23
2019-02-06T21:15:37.276Z,8.60
2019-02-06T21:18:07.190Z,8.10
2019-02-06T21:20:35.870Z,8.93
2019-02-06T21:23:04.626Z,8.27
2019-02-06T21:25:33.175Z,8.80
2019-02-06T21:28:01.823Z,8.60
2019-02-06T21:30:31.627Z,7.23
2019-02-06T21:33:00.534Z,8.00
2019-02-06T21:35:29.220Z,5.50
2019-02-06T21:37:58.546Z,5.27
2019-02-06T21:40:31.824Z,8.00
2019-02-06T21:43:00.735Z,8.10
2019-02-06T21:45:29.430Z,7.20
2019-02-06T21:47:57.887Z,7.57
2019-02-06T21:50:27.146Z,7.83
2019-02-06T21:52:56.114Z,7.90
2019-02-06T21:55:24.851Z,8.70
2019-02-06T21:57:53.718Z,9.70
2019-02-06T22:00:30.113Z,9.33
2019-02-06T22:02:59.006Z,10.03
2019-02-06T22:05:28.736Z,9.87
2019-02-06T22:07:57.466Z,9.47
2019-02-06T22:10:26.490Z,9.73
2019-02-06T22:12:55.408Z,11.93
2019-02-06T22:15:24.878Z,9.57
2019-02-06T22:17:53.731Z,9.77
2019-02-06T22:20:22.839Z,9.63
2019-02-06T22:22:52.548Z,9.47
2019-02-06T22:25:21.368Z,10.17
2019-02-06T22:27:50.799Z,10.50
2019-02-06T22:30:23.235Z,9.50
2019-02-06T22:32:51.969Z,8.07
2019-02-06T22:35:21.087Z,7.17
2019-02-06T22:37:49.893Z,6.87
2019-02-06T22:40:19.691Z,6.10
2019-02-06T22:42:48.610Z,5.60
2019-02-06T22:45:19.459Z,5.10
2019-02-06T22:47:48.407Z,4.17
2019-02-06T22:50:18.279Z,4.17
2019-02-06T22:52:46.703Z,4.47
2019-02-06T22:55:15.198Z,4.17
2019-02-06T22:57:43.795Z,4.00
2019-02-06T23:00:24.063Z,3.73
2019-02-06T23:02:50.235Z,3.43
2019-02-06T23:05:19.655Z,4.20
2019-02-06T23:07:47.899Z,3.63
2019-02-06T23:10:16.607Z,4.43
2019-02-06T23:12:45.403Z,5.27
2019-02-06T23:15:14.749Z,4.50
2019-02-06T23:17:43.548Z,5.10
2019-02-06T23:20:12.519Z,4.90
2019-02-06T23:22:41.374Z,5.87
2019-02-06T23:25:10.159Z,6.20
2019-02-06T23:27:38.971Z,5.03
2019-02-06T23:30:08.252Z,5.63
2019-02-06T23:32:36.867Z,5.87
2019-02-06T23:35:06.078Z,4.90
2019-02-06T23:37:34.755Z,4.93
2019-02-06T23:40:04.375Z,4.57
2019-02-06T23:42:33.365Z,5.17
2019-02-06T23:45:02.361Z,3.93
2019-02-06T23:47:32.135Z,4.07
2019-02-06T23:50:01.223Z,4.00
2019-02-06T23:52:30.562Z,4.13
2019-02-06T23:54:59.559Z,3.20
2019-02-06T23:57:28.513Z,3.17
2019-02-06T23:59:56.857Z,3.17
